Nearby METAR Reports


Data Updates Approximately Every Four Hours

METAR is the international standard code format for hourly surface weather observations which is analogous to the SA coding currently used in the US. The acronym roughly translates from French as Aviation Routine Weather Report. SPECI is merely the code name given to METAR formatted products which are issued on a special non-routine basis as dictated by changing meteorological conditions. The SPECI acronym roughly translates as Aviation Selected Special Weather Report.

KSLH - Cheboygan, Michigan, USA
Distance from station: W 9mi, 14km
Updated: 01/19/2018 12:15pm
Clear
Clear
 Wind from SSW
Wind: SSW 10 mph , 17 km/h, Gust: 17 mph , 28 km/h
Temperature: 34°F , 1°C
Wind Chill: 26°F , -3°C
Dew Point: 27°F , -3°C
Humidity: 75%
Barometer: 29.64 inHg , 1003.7 hPa
Clouds: Clear
Visibility: 10 miles , 16 km
2018/01/19 17:15 KSLH 191715Z AUTO 21009G15KT 10SM CLR 01/M03 A2964 RMK AO2 T00101030
KMCD - Mackinac Island, Michigan, USA
Distance from station: NW 19mi, 31km
Updated: 01/19/2018 12:15pm
Clear
Clear
 Wind from SW
Wind: SW 8 mph , 13 km/h, Gust: 17 mph , 28 km/h
Temperature: 34°F , 1°C
Wind Chill: 27°F , -3°C
Dew Point: 28°F , -2°C
Humidity: 81%
Barometer: 29.64 inHg , 1003.7 hPa
Clouds: Clear
Visibility: 10 miles , 16 km
2018/01/19 17:15 KMCD 191715Z AUTO 23007G15KT 10SM CLR 01/M02 A2964 RMK AO2 T00061025
 
KPLN - Pellston, Michigan, USA
Distance from station: WSW 24mi, 38km
Updated: 01/19/2018 11:54am
Clear
Clear
 Wind from SW
Wind: SW 12 mph , 19 km/h, Gust: 20 mph , 31 km/h
Temperature: 34°F , 1°C
Wind Chill: 25°F , -4°C
Dew Point: 27°F , -3°C
Humidity: 75%
Barometer: 29.69 inHg , 1005.4 hPa
Clouds: Clear
Visibility: 9 miles , 14 km
2018/01/19 16:54 KPLN 191654Z AUTO 22010G17KT 9SM CLR 01/M03 A2969 RMK AO2 SLP061 T00061033
KPZQ - Rogers City, Michigan, USA
Distance from station: SE 31mi, 50km
Updated: 01/19/2018 12:15pm
Clear
Clear
 Wind from SSW
Wind: SSW 10 mph , 17 km/h
Temperature: 34°F , 1°C
Wind Chill: 26°F , -3°C
Dew Point: 27°F , -3°C
Humidity: 75%
Barometer: 29.67 inHg , 1004.7 hPa
Clouds: Clear
Visibility: 10 miles , 16 km
2018/01/19 17:15 KPZQ 191715Z AUTO 21009KT 10SM CLR 01/M03 A2967 RMK AO2 T00131035
 
KMGN - Harbor Springs, Michigan, USA
Distance from station: WSW 32mi, 52km
Updated: 01/19/2018 12:15pm
Clear
Clear
 Wind from SW
Wind: SW 9 mph , 15 km/h
Temperature: 32°F , 0°C
Wind Chill: 24°F , -4°C
Dew Point: 27°F , -3°C
Humidity: 80%
Barometer: 29.67 inHg , 1004.7 hPa
Clouds: Clear
Visibility: 10 miles , 16 km
2018/01/19 17:15 KMGN 191715Z AUTO 23008KT 10SM CLR 00/M03 A2967 RMK AO2 T00051030
KDRM - Drummond Is, Michigan, USA
Distance from station: NE 36mi, 59km
Updated: 01/19/2018 12:15pm
Mostly cloudy
Mostly cloudy
 Wind from SSW
Wind: SSW 12 mph , 19 km/h, Gust: 18 mph , 30 km/h
Temperature: 32°F , 0°C
Wind Chill: 23°F , -5°C
Dew Point: 27°F , -3°C
Humidity: 80%
Barometer: 29.64 inHg , 1003.7 hPa
Clouds: Mostly cloudy
Visibility: 10 miles , 16 km
Cloud details: Mostly cloudy 10000 ft
2018/01/19 17:15 KDRM 191715Z AUTO 21010G16KT 10SM BKN100 00/M03 A2964 RMK AO2 T10011032
 
KCIU - Chippewa Intl, Michigan, USA
Distance from station: N 41mi, 66km
Updated: 01/19/2018 11:56am
Overcast
Overcast
 Wind from SSW
Wind: SSW 8 mph , 13 km/h, Gust: 18 mph , 30 km/h
Temperature: 34°F , 1°C
Wind Chill: 27°F , -3°C
Dew Point: 28°F , -2°C
Humidity: 81%
Barometer: 29.63 inHg , 1003.4 hPa
Clouds: Overcast
Visibility: 10 miles , 16 km
Cloud details: Overcast 1100 ft
2018/01/19 16:56 KCIU 191656Z AUTO 21007G16KT 180V240 10SM OVC011 01/M02 A2963 RMK AO2 SLP059 T00061022 FZRANO PNO $
KGLR - Gaylord, Michigan, USA
Distance from station: SSW 48mi, 77km
Updated: 01/19/2018 11:53am
Clear
Clear
 Wind from SW
Wind: SW 14 mph , 22 km/h
Temperature: 30°F , -1°C
Wind Chill: 19°F , -7°C
Dew Point: 25°F , -4°C
Humidity: 80%
Barometer: 29.67 inHg , 1004.7 hPa
Clouds: Clear
Visibility: 9 miles , 14 km
2018/01/19 16:53 KGLR 191653Z AUTO 22012KT 9SM CLR M01/M04 A2967 RMK AO2 SLP062 T10061039
 
KCVX - Charlevoix, Michigan, USA
Distance from station: WSW 52mi, 83km
Updated: 01/19/2018 12:15pm
Clear
Clear
 Wind from SSW
Wind: SSW 17 mph , 28 km/h, Gust: 28 mph , 44 km/h
Temperature: 34°F , 1°C
Wind Chill: 23°F , -5°C
Dew Point: 28°F , -2°C
Humidity: 81%
Barometer: 29.70 inHg , 1005.8 hPa
Clouds: Clear
Visibility: 10 miles , 16 km
2018/01/19 17:15 KCVX 191715Z AUTO 21015G24KT 10SM CLR 01/M02 A2970 RMK AO2 T00111025
KANJ - Sault Ste Marie, Michigan, USA
Distance from station: N 56mi, 89km
Updated: 01/19/2018 11:55am
Overcast
Overcast
 Wind from SSW
Wind: SSW 9 mph , 15 km/h
Temperature: 36°F , 2°C
Wind Chill: 29°F , -2°C
Dew Point: 28°F , -2°C
Humidity: 75%
Barometer: 29.63 inHg , 1003.4 hPa
Clouds: Overcast
Visibility: 7 miles , 11 km
Cloud details: Overcast 1300 ft
2018/01/19 16:55 KANJ 191655Z AUTO 20008KT 7SM OVC013 02/M02 A2963 RMK AO2 SLP039 T00221017
 
KAPN - Alpena, Michigan, USA
Distance from station: SE 56mi, 89km
Updated: 01/19/2018 11:54am
Clear
Clear
 Wind from SW
Wind: SW 10 mph , 17 km/h
Temperature: 34°F , 1°C
Wind Chill: 26°F , -3°C
Dew Point: 25°F , -4°C
Humidity: 70%
Barometer: 29.71 inHg , 1006.1 hPa
Clouds: Clear
Visibility: 10 miles , 16 km
2018/01/19 16:54 KAPN 191654Z AUTO 22009KT 10SM CLR 01/M04 A2971 RMK AO2 SLP070 T00111039
CYAM - Sault Ste Marie, Ontario, Canada
Distance from station: N 56mi, 90km
Updated: 01/19/2018 12:00pm
Overcast
Overcast
 Wind from SSW
Wind: SSW 12 mph , 19 km/h, Gust: 22 mph , 35 km/h
Temperature: 34°F , 1°C
Wind Chill: 25°F , -4°C
Dew Point: 28°F , -2°C
Humidity: 81%
Barometer: 29.61 inHg , 1002.7 hPa
Clouds: Overcast
Visibility: 8 miles , 13 km
Cloud details: Few Clouds 900 ft
Mostly cloudy 1200 ft
Mostly cloudy 10000 ft
Overcast 21000 ft
2018/01/19 17:00 CYAM 191700Z 21010G19KT 8SM FEW009 BKN012 BKN100 OVC210 01/M02 A2961 RMK ST2SC4AC1CI1 PRESFR SLP039
 
KSJX - Beaver Island, Michigan, USA
Distance from station: W 60mi, 96km
Updated: 01/19/2018 12:15pm
Partly cloudy
Partly cloudy
 Wind from SW
Wind: SW 16 mph , 26 km/h, Gust: 24 mph , 39 km/h
Temperature: 36°F , 2°C
Wind Chill: 26°F , -3°C
Dew Point: 30°F , -1°C
Humidity: 81%
Barometer: 29.65 inHg , 1004.1 hPa
Clouds: Partly cloudy
Visibility: 10 miles , 16 km
Cloud details: Partly cloudy 1300 ft
2018/01/19 17:15 KSJX 191715Z AUTO 22014G21KT 10SM SCT013 02/M01 A2965 RMK AO2 T00181010
KACB - Bellaire, Michigan, USA
Distance from station: SW 63mi, 102km
Updated: 01/19/2018 12:15pm
Clear
Clear
 Wind from SW
Wind: SW 6 mph , 9 km/h
Temperature: 36°F , 2°C
Wind Chill: 31°F , -1°C
Dew Point: 28°F , -2°C
Humidity: 75%
Barometer: 29.71 inHg , 1006.1 hPa
Clouds: Clear
Visibility: 10 miles , 16 km
2018/01/19 17:15 KACB 191715Z AUTO 22005KT 10SM CLR 02/M02 A2971 RMK AO2 T00191020
 
CWNL - Great Duck Island, Ontario, Canada
Distance from station: E 66mi, 106km
Updated: 01/19/2018 11:00am
NOT Current

 Wind from WSW
Wind: WSW 16 mph , 26 km/h
Temperature: 32°F , 0°C
Wind Chill: 21°F , -6°C
Dew Point: 27°F , -3°C
Humidity: 80%
2018/01/19 16:00 CWNL 191600Z AUTO 25014KT M00/M03 RMK AO1 PK WND 25017/1552 SLP073 T10011027 56007
KERY - Newberry, Michigan, USA
Distance from station: NW 69mi, 112km
Updated: 01/19/2018 12:15pm
Clear
Clear
 Wind from SSW
Wind: SSW 18 mph , 30 km/h, Gust: 31 mph , 50 km/h
Temperature: 32°F , 0°C
Wind Chill: 21°F , -6°C
Dew Point: 30°F , -1°C
Humidity: 93%
Barometer: 29.59 inHg , 1002 hPa
Clouds: Clear
Visibility: 7 miles , 11 km
2018/01/19 17:15 KERY 191715Z AUTO 21016G27KT 7SM CLR 00/M01 A2959 RMK AO2 T00021015
 
KGOV - Grayling Af, Michigan, USA
Distance from station: SSW 70mi, 113km
Updated: 01/19/2018 12:15pm
Clear
Clear
 Wind from SSW
Wind: SSW 10 mph , 17 km/h, Gust: 20 mph , 31 km/h
Temperature: 34°F , 1°C
Wind Chill: 26°F , -3°C
Dew Point: 25°F , -4°C
Humidity: 70%
Barometer: 29.69 inHg , 1005.4 hPa
Clouds: Clear
Visibility: 10 miles , 16 km
2018/01/19 17:15 KGOV 191715Z AUTO 21009G17KT 10SM CLR 01/M04 A2969 RMK AO2 T00111043